Time;durP1;ratioP1;P1;durP2;ratioP2;P2;SDS_P1;SDS_P2;PMS_P1;PMS_P2;Temp;Humidity;BMP_temperature;BMP_pressure;BME280_temperature;BME280_humidity;BME280_pressure;Samples;Min_cycle;Max_cycle;Signal;HPM_P1;HPM_P2
2021/09/21 00:02:25;;;;;;;6.05;5.40;;;12.40;68.70;;;11.97;54.70;95590.84;5032334;28;20211;-80
2021/09/21 00:04:54;;;;;;;6.75;5.85;;;12.40;68.70;;;11.96;54.89;95589.22;5032249;28;20295;-79
2021/09/21 00:07:21;;;;;;;7.72;6.07;;;12.40;68.90;;;11.94;55.18;95599.03;5032262;28;20216;-79
2021/09/21 00:09:49;;;;;;;7.68;6.05;;;12.40;68.90;;;11.94;54.97;95601.69;5016021;28;20637;-78
2021/09/21 00:12:16;;;;;;;8.10;6.00;;;12.40;69.00;;;11.94;54.98;95595.63;5031940;28;20250;-79
2021/09/21 00:14:43;;;;;;;8.27;6.38;;;12.40;68.90;;;11.93;55.02;95596.59;5032005;28;20760;-79
2021/09/21 00:17:11;;;;;;;6.95;5.88;;;12.40;68.90;;;11.90;55.44;95584.66;5031917;28;20306;-79
2021/09/21 00:19:38;;;;;;;7.28;6.00;;;12.40;69.00;;;11.95;55.15;95594.59;5032069;28;20243;-79
2021/09/21 00:22:05;;;;;;;6.70;6.00;;;12.40;68.90;;;11.95;55.46;95595.44;5031886;28;20224;-79
2021/09/21 00:24:32;;;;;;;7.38;5.80;;;12.40;69.00;;;11.96;54.82;95586.56;5031880;28;20202;-79
2021/09/21 00:26:59;;;;;;;9.27;5.80;;;12.40;69.10;;;11.98;55.19;95589.00;5031626;28;20213;-79
2021/09/21 00:29:27;;;;;;;6.68;5.82;;;12.50;69.30;;;11.97;55.05;95587.38;5031830;28;20200;-79
2021/09/21 00:32:01;;;;;;;7.30;5.35;;;12.40;69.10;;;11.99;54.79;95588.81;5031743;28;20220;-79
2021/09/21 00:34:42;;;;;;;8.40;4.72;;;12.40;69.20;;;12.01;54.81;95594.72;5031915;28;20189;-79
2021/09/21 00:37:11;;;;;;;5.57;4.88;;;12.40;69.20;;;12.00;54.95;95590.47;5046950;28;20212;-79
2021/09/21 00:39:40;;;;;;;7.15;5.78;;;12.40;69.10;;;11.99;55.10;95585.38;5048330;28;20615;-79
2021/09/21 00:42:08;;;;;;;6.75;5.43;;;12.40;69.00;;;12.00;55.00;95589.66;5031455;28;20220;-79
2021/09/21 00:44:37;;;;;;;6.70;5.57;;;12.40;69.10;;;12.00;54.89;95590.47;5031718;28;20705;-79
2021/09/21 00:47:09;;;;;;;5.63;5.00;;;12.40;69.10;;;11.97;54.74;95582.13;5031396;28;20263;-79
2021/09/21 00:49:37;;;;;;;7.57;5.18;;;12.40;69.20;;;12.03;55.12;95591.09;5031437;28;20657;-79
2021/09/21 00:52:05;;;;;;;6.38;5.32;;;12.50;69.40;;;11.98;55.07;95579.31;5031429;28;20342;-79
2021/09/21 00:54:32;;;;;;;7.18;5.38;;;12.40;69.20;;;12.01;54.95;95583.38;5031389;28;20608;-79
2021/09/21 00:57:00;;;;;;;6.25;5.10;;;12.40;69.40;;;11.99;55.08;95588.81;5031506;28;20595;-79
2021/09/21 00:59:27;;;;;;;5.57;4.97;;;12.50;69.40;;;12.00;55.01;95587.81;5030790;28;20313;-79
2021/09/21 01:01:54;;;;;;;6.13;5.32;;;12.40;69.30;;;12.00;54.97;95584.41;5031288;28;20228;-79
2021/09/21 01:04:22;;;;;;;7.10;5.00;;;12.50;69.40;;;12.04;55.01;95590.09;5031162;28;20211;-79
2021/09/21 01:06:49;;;;;;;8.02;5.45;;;12.40;69.30;;;12.04;54.96;95585.66;5031478;28;20219;-79
2021/09/21 01:09:23;;;;;;;5.78;4.95;;;12.40;69.30;;;12.06;55.16;95596.81;5031256;28;20287;-79
2021/09/21 01:11:57;;;;;;;5.97;5.00;;;12.40;69.40;;;12.05;54.96;95592.53;5031387;28;20236;-79
2021/09/21 01:14:25;;;;;;;7.72;4.90;;;12.40;69.50;;;11.99;54.81;95580.94;5031432;28;20201;-79
2021/09/21 01:16:55;;;;;;;5.32;4.70;;;12.40;69.40;;;12.03;55.13;95589.28;5014609;28;20227;-79
2021/09/21 01:19:23;;;;;;;5.95;4.72;;;12.40;69.40;;;11.98;54.95;95583.75;5031163;28;20286;-79
2021/09/21 01:21:50;;;;;;;5.90;4.75;;;12.40;69.40;;;12.04;55.14;95590.09;5031023;28;20212;-79
2021/09/21 01:24:19;;;;;;;6.40;5.22;;;12.50;69.50;;;12.03;55.17;95585.84;5031297;28;20227;-79
2021/09/21 01:26:47;;;;;;;5.60;5.00;;;12.40;69.40;;;12.04;55.45;95588.28;5014671;28;20217;-79
2021/09/21 01:29:15;;;;;;;5.55;4.63;;;12.40;69.60;;;12.03;55.12;95581.38;5031388;28;20192;-79
2021/09/21 01:31:43;;;;;;;4.65;4.18;;;12.40;69.60;;;12.01;55.18;95578.09;5030818;28;20213;-79
2021/09/21 01:34:19;;;;;;;5.28;4.55;;;12.40;69.60;;;12.05;54.63;95586.44;5031015;28;20211;-79
2021/09/21 01:36:47;;;;;;;6.53;4.43;;;12.40;71.10;;;12.04;55.40;95580.38;5014450;28;20250;-79
2021/09/21 01:39:14;;;;;;;5.75;4.68;;;12.40;69.80;;;12.04;55.48;95585.66;5031219;28;20327;-79
2021/09/21 01:41:42;;;;;;;6.88;4.95;;;12.50;69.90;;;12.00;55.47;95581.75;5014347;28;20224;-79
2021/09/21 01:44:09;;;;;;;6.18;4.97;;;12.40;69.70;;;12.03;55.48;95585.84;5030920;28;20196;-79
2021/09/21 01:46:36;;;;;;;5.85;4.80;;;12.40;69.80;;;12.00;55.56;95585.19;5014415;28;20297;-79
2021/09/21 01:49:04;;;;;;;6.15;5.35;;;12.40;69.90;;;12.00;55.43;95582.56;5047288;28;20757;-78
2021/09/21 01:51:37;;;;;;;7.25;5.05;;;12.40;69.80;;;11.99;55.50;95586.19;5047083;28;20216;-79
2021/09/21 01:54:28;;;;;;;6.38;4.75;;;12.50;69.90;;;11.99;55.53;95585.38;5030708;28;20727;-78
2021/09/21 01:59:41;;;;;;;7.38;4.97;;;12.50;70.00;;;11.91;56.07;95591.50;5047540;28;20250;-79
2021/09/21 02:02:08;;;;;;;8.23;5.10;;;12.50;70.10;;;11.89;55.97;95588.28;5031877;28;20569;-79
2021/09/21 02:04:36;;;;;;;8.43;6.10;;;12.40;70.00;;;11.88;56.38;95593.69;5031093;28;20192;-79
2021/09/21 02:07:03;;;;;;;8.07;5.53;;;12.40;70.10;;;11.85;56.33;95595.72;5030506;28;20307;-79
2021/09/21 02:09:30;;;;;;;6.47;5.57;;;12.40;70.10;;;11.84;56.18;95590.63;5030798;28;20199;-79
2021/09/21 02:11:57;;;;;;;6.85;5.50;;;12.30;70.10;;;11.81;56.23;95583.91;5034436;28;20220;-79
2021/09/21 02:14:26;;;;;;;6.25;5.30;;;12.40;70.10;;;11.83;56.15;95589.00;5034496;28;20200;-79
2021/09/21 02:16:54;;;;;;;7.53;5.88;;;12.30;70.10;;;11.86;56.23;95607.03;5034256;28;20204;-79
2021/09/21 02:19:25;;;;;;;8.57;6.13;;;12.30;70.10;;;11.84;56.43;95601.16;5050656;28;20224;-79
2021/09/21 02:21:52;;;;;;;7.45;6.10;;;12.30;70.30;;;11.83;56.41;95602.16;5034086;28;20300;-79
2021/09/21 02:24:22;;;;;;;7.70;6.57;;;12.40;70.40;;;11.81;56.82;95604.94;5034171;28;20657;-79
2021/09/21 02:26:50;;;;;;;7.13;5.95;;;12.30;70.40;;;11.81;56.70;95607.56;5034039;28;20226;-79
2021/09/21 02:29:18;;;;;;;9.07;6.13;;;12.30;70.40;;;11.81;56.75;95609.38;5034272;28;20203;-79
2021/09/21 02:31:45;;;;;;;9.00;6.85;;;12.20;70.20;;;11.81;56.48;95618.06;5033806;28;20212;-79
2021/09/21 02:34:12;;;;;;;9.40;6.35;;;12.20;70.30;;;11.81;56.53;95620.72;5034055;28;20658;-80
2021/09/21 02:36:41;;;;;;;8.95;7.47;;;12.20;70.20;;;11.80;56.48;95619.09;5033872;28;20201;-79
2021/09/21 02:39:10;;;;;;;8.77;6.53;;;12.20;70.20;;;11.81;56.50;95620.72;5017657;28;20658;-79
2021/09/21 02:41:37;;;;;;;9.38;7.40;;;12.20;70.20;;;11.78;56.53;95605.31;5050317;28;20212;-79
2021/09/21 02:44:05;;;;;;;9.77;6.63;;;12.20;70.30;;;11.83;56.69;95612.66;5034019;28;20224;-79
2021/09/21 02:46:32;;;;;;;9.05;6.90;;;12.30;70.40;;;11.81;56.94;95612.03;5033469;28;20228;-79
2021/09/21 02:48:59;;;;;;;10.35;6.65;;;12.20;70.30;;;11.80;57.13;95613.00;5017543;28;20228;-79
2021/09/21 02:51:26;;;;;;;7.95;6.97;;;12.30;70.40;;;11.79;56.77;95614.00;5033518;28;20243;-79
2021/09/21 02:53:53;;;;;;;7.35;6.35;;;12.30;70.40;;;11.79;56.66;95627.16;5049788;28;20193;-79
2021/09/21 02:56:21;;;;;;;7.82;6.63;;;12.20;70.30;;;11.78;57.06;95621.09;5017309;28;20278;-79
2021/09/21 02:58:48;;;;;;;8.27;6.47;;;12.30;70.40;;;11.79;56.85;95635.03;5033386;28;20224;-79
2021/09/21 03:01:18;;;;;;;8.00;6.72;;;12.20;70.30;;;11.78;56.86;95631.59;5033288;28;20236;-79
2021/09/21 03:03:50;;;;;;;7.47;6.25;;;12.30;70.40;;;11.79;56.47;95630.59;5033479;28;20672;-79
2021/09/21 03:06:24;;;;;;;8.82;6.30;;;12.20;70.30;;;11.80;56.51;95629.63;5033482;28;20230;-79
2021/09/21 03:08:55;;;;;;;7.95;6.47;;;12.20;70.30;;;11.80;56.60;95634.88;5034499;28;20288;-79
2021/09/21 03:11:26;;;;;;;7.68;6.40;;;12.20;70.30;;;11.76;56.46;95628.31;5049771;28;20299;-79
2021/09/21 03:19:06;;;;;;;7.40;5.50;;;12.20;70.50;;;11.79;56.65;95643.75;5033212;28;20334;-79
2021/09/21 03:21:34;;;;;;;6.82;5.53;;;12.20;70.50;;;11.80;56.61;95652.44;5048848;28;20308;-79
2021/09/21 03:24:01;;;;;;;7.00;5.68;;;12.20;70.50;;;11.80;56.35;95655.91;5033044;28;20228;-79
2021/09/21 03:26:28;;;;;;;5.50;4.93;;;12.20;70.60;;;11.81;56.40;95654.06;5033004;28;20264;-79
2021/09/21 03:28:56;;;;;;;8.05;6.03;;;12.20;70.60;;;11.81;56.15;95646.19;5033058;28;20255;-79
2021/09/21 03:31:23;;;;;;;6.20;5.32;;;12.20;70.70;;;11.81;56.72;95646.19;5033177;28;20219;-79
2021/09/21 03:33:50;;;;;;;6.97;5.70;;;12.20;70.70;;;11.77;56.67;95643.09;5016700;28;20196;-79
2021/09/21 03:36:17;;;;;;;6.15;5.35;;;12.20;70.80;;;11.78;56.27;95641.28;5033089;28;20249;-79
2021/09/21 03:38:44;;;;;;;7.15;5.60;;;12.20;70.70;;;11.84;56.51;95641.38;5032889;28;20200;-79
2021/09/21 03:41:12;;;;;;;8.60;5.35;;;12.20;70.80;;;11.85;56.55;95640.38;5032510;28;20608;-79
2021/09/21 03:43:39;;;;;;;6.32;5.18;;;12.20;70.90;;;11.88;56.54;95643.63;5032634;28;20222;-79
2021/09/21 03:46:06;;;;;;;7.53;5.63;;;12.20;70.80;;;11.89;56.61;95643.47;5032515;28;20294;-79
2021/09/21 03:48:33;;;;;;;5.90;5.30;;;12.20;70.90;;;11.90;56.60;95647.75;5049018;28;20762;-80
2021/09/21 03:51:00;;;;;;;7.95;5.22;;;12.20;70.70;;;11.89;56.50;95648.72;5032551;28;20204;-79
2021/09/21 03:53:27;;;;;;;7.63;5.43;;;12.20;70.70;;;11.88;56.54;95646.25;5049117;28;20207;-79
2021/09/21 03:55:55;;;;;;;6.13;5.43;;;12.30;70.70;;;11.90;56.49;95645.09;5048789;28;20720;-79
2021/09/21 03:58:22;;;;;;;6.40;5.32;;;12.30;70.90;;;11.89;56.42;95654.00;5032422;28;20216;-79
2021/09/21 04:00:49;;;;;;;7.65;5.80;;;12.30;71.70;;;11.89;56.52;95656.63;5032321;28;20238;-79
2021/09/21 04:03:17;;;;;;;7.15;4.97;;;12.20;70.80;;;11.88;56.72;95647.09;5032194;28;20593;-79
2021/09/21 04:05:44;;;;;;;7.30;5.38;;;12.30;70.90;;;11.88;56.68;95646.25;5032330;28;20270;-79
2021/09/21 04:08:11;;;;;;;7.85;6.03;;;12.20;70.80;;;11.87;56.76;95648.09;5032058;28;20650;-79
2021/09/21 04:10:39;;;;;;;7.88;6.60;;;12.20;70.80;;;11.87;56.62;95653.34;5031892;28;20303;-79
2021/09/21 04:13:06;;;;;;;10.68;8.30;;;12.20;70.70;;;11.84;56.78;95649.28;5032088;28;20657;-79
2021/09/21 04:15:33;;;;;;;10.07;7.38;;;12.30;70.70;;;11.81;56.66;95649.63;5015803;28;20219;-79
2021/09/21 04:18:04;;;;;;;8.10;6.63;;;12.20;70.60;;;11.82;56.73;95658.34;5032133;28;20204;-79
2021/09/21 04:20:32;;;;;;;9.57;7.22;;;12.30;70.70;;;11.80;56.75;95657.69;5032213;28;20286;-79
2021/09/21 04:22:59;;;;;;;8.05;6.97;;;12.20;70.70;;;11.80;56.61;95668.22;5031964;28;20195;-79
2021/09/21 04:25:28;;;;;;;7.90;6.50;;;12.20;70.70;;;11.81;56.57;95667.22;5031857;28;20252;-79
2021/09/21 04:27:55;;;;;;;9.07;6.93;;;12.20;70.70;;;11.81;56.64;95662.75;5032209;28;20654;-79
2021/09/21 04:30:22;;;;;;;7.30;6.47;;;12.20;70.70;;;11.81;56.63;95668.00;5031839;28;20200;-79
2021/09/21 04:32:50;;;;;;;7.07;6.30;;;12.30;70.90;;;11.84;56.79;95664.25;5031618;28;20191;-79
2021/09/21 04:35:17;;;;;;;8.05;6.47;;;12.20;70.90;;;11.83;56.66;95662.59;5047546;28;20200;-79
2021/09/21 04:37:45;;;;;;;9.23;6.63;;;12.20;70.90;;;11.84;56.75;95670.31;5031573;28;20288;-79
2021/09/21 04:40:12;;;;;;;10.60;7.00;;;12.30;70.90;;;11.82;56.86;95669.66;5031410;28;20224;-79
2021/09/21 04:42:39;;;;;;;8.75;6.82;;;12.20;70.80;;;11.83;56.74;95665.22;5031402;28;20374;-79
2021/09/21 04:45:07;;;;;;;9.25;6.75;;;12.20;70.70;;;11.83;56.80;95659.97;5031499;28;20270;-79
2021/09/21 04:47:35;;;;;;;7.32;6.20;;;12.20;70.90;;;11.83;56.79;95665.22;5031736;28;20203;-79
2021/09/21 04:50:03;;;;;;;8.40;6.60;;;12.20;70.90;;;11.84;56.58;95666.88;5031565;28;20230;-79
2021/09/21 04:52:30;;;;;;;9.25;6.68;;;12.20;70.90;;;11.85;56.36;95671.09;5031569;28;20693;-79
2021/09/21 04:54:58;;;;;;;7.32;5.90;;;12.20;70.90;;;11.83;56.74;95673.91;5031202;28;20562;-79
2021/09/21 04:57:25;;;;;;;8.93;6.88;;;12.20;70.90;;;11.83;56.65;95670.50;5031200;28;20224;-79
2021/09/21 04:59:52;;;;;;;9.23;6.20;;;12.20;70.90;;;11.84;57.04;95672.94;5031371;28;20204;-79
2021/09/21 05:02:19;;;;;;;7.30;6.35;;;12.20;70.90;;;11.85;56.82;95684.25;5014903;28;20246;-79
2021/09/21 05:04:46;;;;;;;8.02;6.20;;;12.20;70.90;;;11.86;56.68;95688.50;5031221;28;20544;-79
2021/09/21 05:07:13;;;;;;;8.57;6.13;;;12.20;71.00;;;11.88;56.79;95685.69;5031263;28;20287;-79
2021/09/21 05:09:41;;;;;;;8.90;6.32;;;12.20;70.90;;;11.88;56.67;95689.16;5031366;28;20454;-79
2021/09/21 05:12:08;;;;;;;8.35;6.43;;;12.20;70.90;;;11.88;56.60;95689.16;5031263;28;20244;-79
2021/09/21 05:14:35;;;;;;;7.90;6.53;;;12.20;71.00;;;11.89;56.74;95700.47;5015081;28;20200;-79
2021/09/21 05:17:03;;;;;;;7.72;5.65;;;12.20;71.00;;;11.89;56.63;95700.47;5031049;28;20315;-79
2021/09/21 05:19:30;;;;;;;6.90;5.80;;;12.20;71.00;;;11.90;56.86;95702.94;5031139;28;20224;-79
2021/09/21 05:21:57;;;;;;;7.22;6.07;;;12.20;71.10;;;11.91;56.83;95709.81;5030959;28;20708;-79
2021/09/21 05:24:24;;;;;;;7.97;5.90;;;12.20;71.00;;;11.94;56.88;95711.28;5030780;28;20236;-79
2021/09/21 05:26:51;;;;;;;7.25;6.20;;;12.30;71.10;;;11.95;56.88;95713.72;5030962;28;20212;-79
2021/09/21 05:29:19;;;;;;;8.70;6.65;;;12.30;71.00;;;11.97;56.85;95716.19;5031084;28;20200;-80
2021/09/21 05:31:46;;;;;;;8.88;6.97;;;12.30;71.00;;;11.98;56.79;95725.72;5047496;28;20204;-79
2021/09/21 05:34:13;;;;;;;7.80;6.65;;;12.30;71.00;;;11.98;56.74;95721.28;5030990;28;20550;-80
2021/09/21 05:36:40;;;;;;;7.82;6.18;;;12.30;71.00;;;12.01;56.84;95727.97;5030806;28;20208;-79
2021/09/21 05:39:08;;;;;;;7.72;6.13;;;12.30;71.10;;;12.04;56.85;95734.72;5047566;28;20638;-78
2021/09/21 05:41:35;;;;;;;11.40;7.30;;;12.30;71.10;;;12.03;56.77;95733.88;5047139;28;20239;-79
2021/09/21 05:44:03;;;;;;;8.35;6.28;;;12.40;71.10;;;12.06;56.64;95724.81;5032544;28;20184;-79
2021/09/21 05:46:30;;;;;;;8.35;6.43;;;12.40;71.20;;;12.02;56.87;95729.63;5033663;28;20224;-79
2021/09/21 05:48:59;;;;;;;7.78;6.05;;;12.40;71.20;;;12.05;56.75;95731.91;5034956;28;20242;-79
2021/09/21 05:51:31;;;;;;;9.55;6.35;;;12.40;71.20;;;12.09;56.98;95742.88;5034640;28;20220;-79
2021/09/21 05:53:58;;;;;;;7.60;6.07;;;12.40;71.40;;;12.11;56.92;95740.88;5051088;28;20569;-79
2021/09/21 05:56:25;;;;;;;7.53;6.13;;;12.40;71.30;;;12.14;56.87;95741.31;5034557;28;20331;-79
2021/09/21 05:58:53;;;;;;;7.90;6.03;;;12.40;71.40;;;12.16;57.01;95752.47;5018258;28;20232;-79
2021/09/21 06:01:20;;;;;;;7.72;6.45;;;12.40;71.40;;;12.21;57.12;95751.13;5034342;28;20238;-79
2021/09/21 06:03:47;;;;;;;7.18;5.75;;;12.40;71.40;;;12.22;56.84;95748.31;5034828;28;20302;-79
2021/09/21 06:06:15;;;;;;;7.97;6.28;;;12.50;71.50;;;12.27;56.99;95751.22;5034383;28;20219;-79
2021/09/21 06:08:42;;;;;;;7.20;5.90;;;12.50;71.50;;;12.30;56.89;95758.75;5035912;28;20246;-79
2021/09/21 06:11:10;;;;;;;7.85;6.07;;;12.50;71.40;;;12.33;56.81;95763.63;5034733;28;20660;-79
2021/09/21 06:13:37;;;;;;;7.03;5.80;;;12.60;71.50;;;12.38;56.90;95773.63;5034610;28;20197;-79
2021/09/21 06:16:04;;;;;;;6.70;5.50;;;12.70;71.60;;;12.43;56.90;95773.88;5034449;28;20224;-79
2021/09/21 06:18:31;;;;;;;8.10;5.80;;;12.60;71.60;;;12.48;57.06;95773.34;5050914;28;20793;-79
2021/09/21 06:20:58;;;;;;;7.07;6.15;;;12.70;71.80;;;12.54;57.18;95779.72;5033992;28;20582;-79
2021/09/21 06:23:26;;;;;;;9.70;6.15;;;12.70;71.80;;;12.55;57.03;95778.69;5017956;28;20200;-79
2021/09/21 06:25:53;;;;;;;8.18;5.82;;;12.70;71.70;;;12.61;56.97;95776.16;5033989;28;20648;-79
2021/09/21 06:28:20;;;;;;;6.15;5.03;;;12.80;71.80;;;12.65;57.04;95779.22;5034011;28;20273;-79
2021/09/21 06:30:47;;;;;;;7.93;5.90;;;12.80;71.70;;;12.68;56.66;95781.47;5050765;28;20212;-79
2021/09/21 06:33:14;;;;;;;7.50;5.85;;;12.80;71.70;;;12.72;56.96;95784.56;5033920;28;20566;-79
2021/09/21 06:35:41;;;;;;;6.53;5.55;;;12.90;71.70;;;12.77;57.04;95783.03;5033843;28;20214;-79
2021/09/21 06:38:09;;;;;;;6.95;5.68;;;13.00;71.80;;;12.83;56.95;95786.75;5033838;28;20677;-79
2021/09/21 06:40:37;;;;;;;7.95;5.93;;;13.00;71.70;;;12.87;56.83;95785.38;5050268;28;20636;-79
2021/09/21 06:43:06;;;;;;;8.00;5.68;;;13.00;71.70;;;12.92;56.86;95785.63;5033856;28;20193;-79
2021/09/21 06:45:33;;;;;;;6.90;5.72;;;13.10;71.80;;;12.98;56.91;95784.09;5033843;28;20212;-79
2021/09/21 06:48:01;;;;;;;6.82;6.03;;;13.10;71.80;;;13.05;56.86;95797.31;5033732;28;20279;-79
2021/09/21 06:50:28;;;;;;;6.80;5.93;;;13.30;72.00;;;13.11;57.06;95797.41;5034802;28;20307;-79
2021/09/21 06:52:56;;;;;;;8.77;5.88;;;13.30;71.90;;;13.19;56.69;95795.66;5033846;28;20334;-78
2021/09/21 06:55:24;;;;;;;7.22;6.03;;;13.30;71.80;;;13.25;56.83;95787.00;5033348;28;20330;-79
2021/09/21 06:57:53;;;;;;;6.22;5.40;;;13.30;71.80;;;13.31;56.88;95790.72;5032856;28;20310;-79
2021/09/21 07:00:21;;;;;;;7.03;5.80;;;13.40;71.90;;;13.38;56.82;95786.38;5033378;28;20271;-79
2021/09/21 07:02:52;;;;;;;6.32;5.50;;;13.50;72.00;;;13.44;56.73;95782.97;5033336;28;20254;-79
2021/09/21 07:05:21;;;;;;;7.13;5.75;;;13.50;71.80;;;13.51;56.67;95788.31;5049867;28;20196;-79
2021/09/21 07:07:51;;;;;;;6.35;5.43;;;13.60;72.00;;;13.55;56.80;95781.63;5033297;28;20639;-80
2021/09/21 07:10:20;;;;;;;8.57;5.82;;;13.70;72.00;;;13.64;57.01;95782.34;5033509;28;20262;-79
2021/09/21 07:12:48;;;;;;;6.65;5.47;;;13.70;71.80;;;13.74;56.48;95788.09;5016770;28;20549;-79
2021/09/21 07:15:21;;;;;;;7.68;5.65;;;13.80;71.70;;;13.79;56.35;95784.91;5033213;28;20763;-79
2021/09/21 07:17:54;;;;;;;8.15;5.68;;;13.80;71.60;;;13.86;56.41;95793.69;5033906;28;20242;-79
2021/09/21 07:20:24;;;;;;;10.57;6.13;;;13.90;71.50;;;13.93;56.27;95799.84;5049829;28;20689;-79
2021/09/21 07:22:52;;;;;;;11.10;8.13;;;14.00;71.50;;;13.99;56.20;95806.97;5049543;28;20232;-79
2021/09/21 07:25:19;;;;;;;10.25;8.15;;;14.00;71.50;;;14.02;56.00;95811.84;5049730;28;20208;-79
2021/09/21 07:27:49;;;;;;;12.18;7.85;;;14.10;71.60;;;14.06;56.08;95807.84;5033292;28;20231;-79
2021/09/21 07:30:16;;;;;;;11.30;7.93;;;14.10;71.60;;;14.11;56.18;95815.19;5032886;28;20196;-78
2021/09/21 07:32:45;;;;;;;9.60;8.00;;;14.20;71.70;;;14.14;56.46;95817.44;5032976;28;20589;-79
2021/09/21 07:35:12;;;;;;;9.43;7.80;;;14.30;71.80;;;14.16;56.30;95815.44;5032900;28;20742;-79
2021/09/21 07:37:39;;;;;;;9.90;7.63;;;14.30;71.70;;;14.17;56.14;95816.22;5049141;28;20250;-79
2021/09/21 07:40:08;;;;;;;9.93;8.10;;;14.30;71.60;;;14.21;56.32;95822.78;5032787;28;20246;-79
2021/09/21 07:42:36;;;;;;;8.60;7.47;;;14.30;71.60;;;14.24;56.62;95815.28;5032415;28;20314;-79
2021/09/21 07:45:05;;;;;;;10.10;7.38;;;14.30;71.60;;;14.31;56.28;95825.88;5032610;28;20270;-78
2021/09/21 07:47:33;;;;;;;9.95;7.57;;;14.40;71.50;;;14.35;56.38;95829.75;5032850;28;20203;-80
2021/09/21 07:50:00;;;;;;;9.02;7.00;;;14.40;71.50;;;14.40;56.12;95837.94;5032690;28;20231;-79
2021/09/21 07:52:27;;;;;;;9.90;7.70;;;14.50;71.50;;;14.43;56.14;95834.09;5032348;28;20706;-79
2021/09/21 07:54:55;;;;;;;9.10;7.53;;;14.50;71.40;;;14.49;56.11;95833.31;5032421;28;20295;-79
2021/09/21 07:57:22;;;;;;;9.23;7.10;;;14.50;71.50;;;14.60;56.07;95836.41;5032438;28;20816;-79
2021/09/21 07:59:50;;;;;;;8.60;7.38;;;14.60;71.40;;;14.66;56.20;95838.31;5032470;28;20200;-79
2021/09/21 08:02:18;;;;;;;8.43;6.82;;;14.70;71.30;;;14.67;55.98;95824.94;5032266;28;20236;-79
2021/09/21 08:04:47;;;;;;;7.75;6.75;;;14.80;71.40;;;14.82;56.09;95845.13;5032522;28;20658;-79
2021/09/21 08:07:14;;;;;;;7.85;6.45;;;14.80;71.40;;;14.92;56.00;95839.47;5032089;28;20227;-79
2021/09/21 08:09:45;;;;;;;8.77;7.07;;;14.90;71.50;;;15.07;55.84;95844.63;5032337;28;20728;-79
2021/09/21 08:12:12;;;;;;;8.68;6.70;;;15.00;71.50;;;15.19;55.69;95841.19;5032044;28;20235;-79
2021/09/21 08:14:40;;;;;;;9.05;7.28;;;15.10;71.50;;;15.34;55.48;95840.22;5032424;28;20743;-79
2021/09/21 08:17:08;;;;;;;11.75;7.22;;;15.20;71.30;;;15.45;55.55;95842.31;5031908;28;20216;-79
2021/09/21 08:19:35;;;;;;;13.02;8.15;;;15.40;71.40;;;15.56;55.20;95840.91;5016229;28;20199;-80
2021/09/21 08:22:03;;;;;;;8.20;6.68;;;15.40;71.30;;;15.74;55.23;95842.97;5031915;28;20243;-79
2021/09/21 08:24:30;;;;;;;10.43;7.40;;;15.50;71.30;;;15.89;55.06;95850.75;5048653;28;20196;-79
2021/09/21 08:26:57;;;;;;;8.52;6.70;;;15.60;71.30;;;16.06;54.72;95847.72;5031697;28;20230;-79
2021/09/21 08:29:24;;;;;;;8.02;6.72;;;15.70;71.20;;;16.22;54.72;95855.28;5031895;28;20284;-79
2021/09/21 08:31:52;;;;;;;10.15;7.40;;;15.80;71.10;;;16.38;54.71;95861.16;5031681;28;20925;-79
2021/09/21 08:34:19;;;;;;;9.23;6.50;;;16.00;71.20;;;16.55;54.26;95850.94;5031580;28;20283;-77
2021/09/21 08:36:50;;;;;;;8.52;6.53;;;16.20;71.00;;;16.68;54.28;95850.91;5048326;28;20216;-80
2021/09/21 08:39:18;;;;;;;6.75;6.05;;;16.30;70.70;;;16.83;53.85;95855.97;5032227;28;20704;-80
2021/09/21 08:41:48;;;;;;;6.50;5.65;;;16.50;70.50;;;16.95;53.43;95851.72;5031345;28;20245;-80
2021/09/21 08:44:20;;;;;;;8.25;5.53;;;16.60;70.00;;;17.09;53.49;95864.94;5032077;28;20628;-80
2021/09/21 08:46:48;;;;;;;7.18;5.97;;;16.70;69.80;;;17.23;53.06;95863.03;5015077;28;20216;-79
2021/09/21 08:49:16;;;;;;;6.63;5.72;;;16.80;70.00;;;17.39;53.20;95867.88;5031278;28;20204;-80
2021/09/21 08:51:44;;;;;;;7.35;5.30;;;17.00;70.00;;;17.58;53.08;95873.28;5031254;28;20228;-79
2021/09/21 08:54:11;;;;;;;6.72;5.45;;;17.20;69.80;;;17.73;52.22;95873.78;5031455;28;20200;-79
2021/09/21 08:56:40;;;;;;;5.65;4.97;;;17.40;69.50;;;17.85;52.20;95873.94;5031394;28;20685;-80
2021/09/21 08:59:12;;;;;;;5.60;5.00;;;17.40;69.10;;;17.92;52.07;95880.00;5031437;28;20211;-80
2021/09/21 09:01:48;;;;;;;6.30;5.10;;;17.60;68.90;;;18.00;51.64;95876.31;5031075;28;20234;-80
2021/09/21 09:04:17;;;;;;;6.65;5.55;;;17.70;68.20;;;18.02;51.51;95878.78;5047745;28;20203;-80
2021/09/21 09:06:52;;;;;;;6.00;5.40;;;17.80;68.40;;;18.01;51.27;95879.78;5031457;28;20216;-80
2021/09/21 09:09:22;;;;;;;6.30;5.38;;;17.80;67.70;;;17.97;51.23;95889.19;5031114;28;20286;-80
2021/09/21 09:11:52;;;;;;;5.75;4.82;;;17.90;67.80;;;17.91;51.17;95894.31;5031090;28;20323;-80
2021/09/21 09:14:25;;;;;;;6.07;4.72;;;17.90;67.60;;;17.90;51.06;95884.72;5048049;28;20193;-80
2021/09/21 09:17:05;;;;;;;5.10;4.60;;;17.90;67.40;;;17.87;50.93;95889.63;5031319;28;20224;-80
2021/09/21 09:19:45;;;;;;;6.05;4.75;;;17.90;66.90;;;17.83;51.15;95894.56;5047393;28;20210;-80
2021/09/21 09:22:17;;;;;;;5.38;4.68;;;17.90;67.20;;;17.80;51.05;95888.84;5030949;28;20285;-80
2021/09/21 09:24:57;;;;;;;5.90;4.90;;;17.90;66.80;;;17.77;50.76;95895.41;5048010;28;20199;-79
2021/09/21 09:27:44;;;;;;;7.07;6.18;;;17.90;67.20;;;17.63;50.38;95894.69;5014612;28;20636;-81
2021/09/21 09:30:15;;;;;;;7.80;5.85;;;17.80;66.80;;;17.54;50.72;95896.75;5047319;28;20579;-79
2021/09/21 09:32:54;;;;;;;6.63;5.85;;;17.70;67.20;;;17.45;50.45;95895.38;5031020;28;20188;-80
2021/09/21 09:35:34;;;;;;;7.50;6.45;;;17.70;66.80;;;17.38;50.64;95898.06;5014562;28;20208;-79
2021/09/21 09:38:09;;;;;;;6.65;5.70;;;17.60;66.60;;;17.33;50.63;95889.91;5014625;28;20199;-80
2021/09/21 09:40:45;;;;;;;7.50;5.50;;;17.60;66.80;;;17.35;51.02;95893.16;5030875;28;20215;-79
2021/09/21 09:43:15;;;;;;;9.15;5.88;;;17.50;67.10;;;17.42;51.02;95887.84;5030891;28;20231;-78
2021/09/21 09:45:45;;;;;;;6.55;5.63;;;17.50;67.10;;;17.48;51.35;95894.97;5030713;28;20274;-79
2021/09/21 09:48:17;;;;;;;6.07;5.05;;;17.60;67.40;;;17.58;50.58;95899.81;5031020;28;20232;-80
2021/09/21 09:50:48;;;;;;;6.22;5.40;;;17.50;66.90;;;17.67;50.69;95903.84;5047187;28;20227;-80
2021/09/21 09:53:17;;;;;;;7.13;5.82;;;17.60;67.10;;;17.74;49.99;95898.50;5030644;28;20275;-79
2021/09/21 09:55:48;;;;;;;6.38;5.25;;;17.70;67.00;;;17.83;50.61;95893.75;5030865;28;20592;-80
2021/09/21 09:58:18;;;;;;;5.82;5.22;;;17.70;67.00;;;17.96;50.08;95893.69;5030740;28;20200;-80
2021/09/21 10:00:46;;;;;;;5.47;4.97;;;17.80;66.90;;;18.10;50.42;95890.97;5030716;28;20716;-80
2021/09/21 10:03:13;;;;;;;6.70;5.75;;;17.90;67.10;;;18.15;49.53;95880.50;5030832;28;20330;-81
2021/09/21 10:05:42;;;;;;;5.55;5.03;;;17.90;66.60;;;18.20;49.59;95876.19;5030726;28;20315;-79
2021/09/21 10:08:11;;;;;;;6.78;5.10;;;18.00;66.80;;;18.30;49.54;95888.97;5030775;28;20210;-80
2021/09/21 10:10:40;;;;;;;7.93;5.35;;;18.20;66.90;;;18.43;49.41;95881.94;5030673;28;20220;-80
2021/09/21 10:13:15;;;;;;;5.13;4.63;;;18.20;67.80;;;18.56;49.80;95876.50;5030543;28;20196;-80
2021/09/21 10:15:43;;;;;;;5.03;4.53;;;18.30;66.50;;;18.67;49.28;95875.78;5014199;28;20228;-79
2021/09/21 10:18:20;;;;;;;7.65;5.07;;;18.40;66.40;;;18.76;48.79;95880.81;5030623;28;20227;-79
2021/09/21 10:21:06;;;;;;;5.13;4.60;;;18.50;66.00;;;18.81;49.04;95881.78;5047054;28;20212;-79
2021/09/21 10:23:39;;;;;;;7.68;4.50;;;18.60;66.20;;;18.88;48.67;95879.03;5047053;28;20232;-79
2021/09/21 10:26:16;;;;;;;5.13;4.63;;;18.60;65.80;;;18.92;48.57;95887.44;5014277;28;20278;-80
2021/09/21 10:28:50;;;;;;;5.00;4.50;;;18.70;65.80;;;18.97;48.80;95892.88;5013946;28;20207;-79
2021/09/21 10:31:21;;;;;;;5.82;4.55;;;18.80;65.60;;;19.00;48.28;95893.25;5030347;28;20220;-80
2021/09/21 10:33:49;;;;;;;4.78;4.38;;;18.80;65.90;;;19.04;48.20;95899.78;5050518;28;20207;-80